sensor_id;sensor_type;location;lat;lon;timestamp;P1;durP1;ratioP1;P2;durP2;ratioP2
68126;SDS011;54931;52.098;21.006;2023-08-30T00:02:26;51.20;;;27.30;;
68126;SDS011;54931;52.098;21.006;2023-08-30T00:04:58;58.30;;;30.30;;
68126;SDS011;54931;52.098;21.006;2023-08-30T00:07:26;53.50;;;27.50;;
68126;SDS011;54931;52.098;21.006;2023-08-30T00:09:54;55.20;;;27.70;;
68126;SDS011;54931;52.098;21.006;2023-08-30T00:12:22;59.80;;;29.90;;
68126;SDS011;54931;52.098;21.006;2023-08-30T00:14:49;53.40;;;27.60;;
68126;SDS011;54931;52.098;21.006;2023-08-30T00:17:17;56.50;;;29.00;;
68126;SDS011;54931;52.098;21.006;2023-08-30T00:19:44;59.70;;;29.70;;
68126;SDS011;54931;52.098;21.006;2023-08-30T00:22:12;52.80;;;27.40;;
68126;SDS011;54931;52.098;21.006;2023-08-30T00:24:40;56.70;;;27.50;;
68126;SDS011;54931;52.098;21.006;2023-08-30T00:27:07;58.50;;;29.00;;
68126;SDS011;54931;52.098;21.006;2023-08-30T00:29:35;55.00;;;28.30;;
68126;SDS011;54931;52.098;21.006;2023-08-30T00:32:03;56.00;;;27.90;;
68126;SDS011;54931;52.098;21.006;2023-08-30T00:34:31;55.50;;;28.70;;
68126;SDS011;54931;52.098;21.006;2023-08-30T00:36:58;55.60;;;27.50;;
68126;SDS011;54931;52.098;21.006;2023-08-30T00:39:26;54.30;;;28.20;;
68126;SDS011;54931;52.098;21.006;2023-08-30T00:41:53;56.50;;;29.50;;
68126;SDS011;54931;52.098;21.006;2023-08-30T00:44:21;59.60;;;28.70;;
68126;SDS011;54931;52.098;21.006;2023-08-30T00:46:48;59.90;;;27.80;;
68126;SDS011;54931;52.098;21.006;2023-08-30T00:49:16;68.30;;;31.30;;
68126;SDS011;54931;52.098;21.006;2023-08-30T00:51:43;64.50;;;29.50;;
68126;SDS011;54931;52.098;21.006;2023-08-30T00:54:11;61.30;;;30.20;;
68126;SDS011;54931;52.098;21.006;2023-08-30T00:56:39;70.50;;;31.20;;
68126;SDS011;54931;52.098;21.006;2023-08-30T00:59:06;71.00;;;30.60;;
68126;SDS011;54931;52.098;21.006;2023-08-30T01:01:34;70.00;;;31.20;;
68126;SDS011;54931;52.098;21.006;2023-08-30T01:04:02;68.70;;;31.30;;
68126;SDS011;54931;52.098;21.006;2023-08-30T01:06:30;69.50;;;31.90;;
68126;SDS011;54931;52.098;21.006;2023-08-30T01:08:57;63.30;;;30.10;;
68126;SDS011;54931;52.098;21.006;2023-08-30T01:15:06;65.10;;;30.60;;
68126;SDS011;54931;52.098;21.006;2023-08-30T01:17:41;61.00;;;30.10;;
68126;SDS011;54931;52.098;21.006;2023-08-30T01:20:15;60.00;;;29.40;;
68126;SDS011;54931;52.098;21.006;2023-08-30T01:23:05;57.90;;;29.20;;
68126;SDS011;54931;52.098;21.006;2023-08-30T01:28:27;55.40;;;27.60;;
68126;SDS011;54931;52.098;21.006;2023-08-30T01:30:58;54.50;;;27.60;;
68126;SDS011;54931;52.098;21.006;2023-08-30T01:33:27;55.60;;;28.30;;
68126;SDS011;54931;52.098;21.006;2023-08-30T01:35:58;56.10;;;28.30;;
68126;SDS011;54931;52.098;21.006;2023-08-30T01:38:28;57.50;;;27.30;;
68126;SDS011;54931;52.098;21.006;2023-08-30T01:40:59;53.00;;;26.20;;
68126;SDS011;54931;52.098;21.006;2023-08-30T01:43:27;51.80;;;27.40;;
68126;SDS011;54931;52.098;21.006;2023-08-30T01:45:57;53.70;;;27.00;;
68126;SDS011;54931;52.098;21.006;2023-08-30T01:48:27;57.00;;;27.60;;
68126;SDS011;54931;52.098;21.006;2023-08-30T01:50:56;55.70;;;27.70;;
68126;SDS011;54931;52.098;21.006;2023-08-30T01:53:28;50.80;;;25.90;;
68126;SDS011;54931;52.098;21.006;2023-08-30T01:55:56;50.70;;;26.00;;
68126;SDS011;54931;52.098;21.006;2023-08-30T01:58:25;54.20;;;27.70;;
68126;SDS011;54931;52.098;21.006;2023-08-30T02:00:52;53.70;;;27.10;;
68126;SDS011;54931;52.098;21.006;2023-08-30T02:03:20;56.40;;;26.30;;
68126;SDS011;54931;52.098;21.006;2023-08-30T02:06:10;50.30;;;26.50;;
68126;SDS011;54931;52.098;21.006;2023-08-30T02:08:47;55.30;;;26.00;;
68126;SDS011;54931;52.098;21.006;2023-08-30T02:11:23;49.40;;;26.40;;
68126;SDS011;54931;52.098;21.006;2023-08-30T02:13:57;50.40;;;25.40;;
68126;SDS011;54931;52.098;21.006;2023-08-30T02:16:27;52.50;;;25.20;;
68126;SDS011;54931;52.098;21.006;2023-08-30T02:18:55;49.50;;;25.70;;
68126;SDS011;54931;52.098;21.006;2023-08-30T02:21:24;48.90;;;24.40;;
68126;SDS011;54931;52.098;21.006;2023-08-30T02:23:51;51.10;;;25.90;;
68126;SDS011;54931;52.098;21.006;2023-08-30T02:26:19;55.40;;;26.30;;
68126;SDS011;54931;52.098;21.006;2023-08-30T02:28:49;51.80;;;24.60;;
68126;SDS011;54931;52.098;21.006;2023-08-30T02:31:17;48.60;;;24.20;;
68126;SDS011;54931;52.098;21.006;2023-08-30T02:33:44;54.10;;;24.80;;
68126;SDS011;54931;52.098;21.006;2023-08-30T02:36:11;50.60;;;25.20;;
68126;SDS011;54931;52.098;21.006;2023-08-30T02:38:39;50.20;;;25.30;;
68126;SDS011;54931;52.098;21.006;2023-08-30T02:41:06;52.10;;;25.00;;
68126;SDS011;54931;52.098;21.006;2023-08-30T02:43:34;46.80;;;23.70;;
68126;SDS011;54931;52.098;21.006;2023-08-30T02:46:02;50.00;;;23.70;;
68126;SDS011;54931;52.098;21.006;2023-08-30T02:48:34;56.20;;;25.10;;
68126;SDS011;54931;52.098;21.006;2023-08-30T02:51:01;47.90;;;23.70;;
68126;SDS011;54931;52.098;21.006;2023-08-30T02:53:30;49.50;;;24.00;;
68126;SDS011;54931;52.098;21.006;2023-08-30T02:55:57;51.20;;;24.70;;
68126;SDS011;54931;52.098;21.006;2023-08-30T02:58:25;48.10;;;23.60;;
68126;SDS011;54931;52.098;21.006;2023-08-30T03:00:53;55.00;;;24.80;;
68126;SDS011;54931;52.098;21.006;2023-08-30T03:03:20;43.60;;;21.60;;
68126;SDS011;54931;52.098;21.006;2023-08-30T03:05:48;46.10;;;23.00;;
68126;SDS011;54931;52.098;21.006;2023-08-30T03:08:15;47.60;;;21.70;;
68126;SDS011;54931;52.098;21.006;2023-08-30T03:10:43;44.30;;;21.90;;
68126;SDS011;54931;52.098;21.006;2023-08-30T03:13:10;41.80;;;21.40;;
68126;SDS011;54931;52.098;21.006;2023-08-30T03:15:38;44.70;;;22.00;;
68126;SDS011;54931;52.098;21.006;2023-08-30T03:18:06;44.00;;;21.80;;
68126;SDS011;54931;52.098;21.006;2023-08-30T03:20:34;49.80;;;22.40;;
68126;SDS011;54931;52.098;21.006;2023-08-30T03:23:01;51.40;;;23.50;;
68126;SDS011;54931;52.098;21.006;2023-08-30T03:25:29;50.60;;;24.00;;
68126;SDS011;54931;52.098;21.006;2023-08-30T03:27:57;50.80;;;23.80;;
68126;SDS011;54931;52.098;21.006;2023-08-30T03:30:25;49.40;;;22.90;;
68126;SDS011;54931;52.098;21.006;2023-08-30T03:32:53;46.80;;;22.00;;
68126;SDS011;54931;52.098;21.006;2023-08-30T03:35:20;57.00;;;25.60;;
68126;SDS011;54931;52.098;21.006;2023-08-30T03:37:49;61.30;;;26.20;;
68126;SDS011;54931;52.098;21.006;2023-08-30T03:40:17;52.90;;;23.10;;
68126;SDS011;54931;52.098;21.006;2023-08-30T03:42:45;47.60;;;22.20;;
68126;SDS011;54931;52.098;21.006;2023-08-30T03:45:13;54.90;;;23.60;;
68126;SDS011;54931;52.098;21.006;2023-08-30T03:47:42;54.50;;;23.80;;
68126;SDS011;54931;52.098;21.006;2023-08-30T03:50:10;53.00;;;22.90;;
68126;SDS011;54931;52.098;21.006;2023-08-30T03:52:39;60.20;;;24.50;;
68126;SDS011;54931;52.098;21.006;2023-08-30T03:55:07;59.60;;;23.50;;
68126;SDS011;54931;52.098;21.006;2023-08-30T03:57:35;58.10;;;24.20;;
68126;SDS011;54931;52.098;21.006;2023-08-30T04:00:03;63.50;;;24.60;;
68126;SDS011;54931;52.098;21.006;2023-08-30T04:02:32;60.70;;;24.30;;
68126;SDS011;54931;52.098;21.006;2023-08-30T04:04:59;57.70;;;24.40;;
68126;SDS011;54931;52.098;21.006;2023-08-30T04:07:27;48.30;;;21.50;;
68126;SDS011;54931;52.098;21.006;2023-08-30T04:09:55;61.50;;;23.80;;
68126;SDS011;54931;52.098;21.006;2023-08-30T04:12:22;55.70;;;24.70;;
68126;SDS011;54931;52.098;21.006;2023-08-30T04:14:50;59.50;;;24.70;;
68126;SDS011;54931;52.098;21.006;2023-08-30T04:17:18;62.10;;;23.80;;
68126;SDS011;54931;52.098;21.006;2023-08-30T04:19:46;62.80;;;25.50;;
68126;SDS011;54931;52.098;21.006;2023-08-30T04:22:13;68.30;;;27.30;;
68126;SDS011;54931;52.098;21.006;2023-08-30T04:24:41;64.20;;;25.20;;
68126;SDS011;54931;52.098;21.006;2023-08-30T04:27:08;60.80;;;23.50;;
68126;SDS011;54931;52.098;21.006;2023-08-30T04:29:36;62.00;;;25.50;;
68126;SDS011;54931;52.098;21.006;2023-08-30T04:32:04;67.00;;;26.70;;
68126;SDS011;54931;52.098;21.006;2023-08-30T04:34:32;68.20;;;26.90;;
68126;SDS011;54931;52.098;21.006;2023-08-30T04:36:59;67.20;;;26.70;;
68126;SDS011;54931;52.098;21.006;2023-08-30T04:39:27;69.00;;;26.30;;
68126;SDS011;54931;52.098;21.006;2023-08-30T04:41:55;64.60;;;26.50;;
68126;SDS011;54931;52.098;21.006;2023-08-30T04:44:23;57.20;;;24.00;;
68126;SDS011;54931;52.098;21.006;2023-08-30T04:46:54;57.10;;;24.40;;
68126;SDS011;54931;52.098;21.006;2023-08-30T04:49:22;59.70;;;24.70;;
68126;SDS011;54931;52.098;21.006;2023-08-30T04:51:52;61.80;;;23.80;;
68126;SDS011;54931;52.098;21.006;2023-08-30T04:54:20;58.40;;;24.40;;
68126;SDS011;54931;52.098;21.006;2023-08-30T04:56:48;54.90;;;22.60;;
68126;SDS011;54931;52.098;21.006;2023-08-30T04:59:16;55.70;;;23.80;;
68126;SDS011;54931;52.098;21.006;2023-08-30T05:01:44;60.60;;;25.30;;
68126;SDS011;54931;52.098;21.006;2023-08-30T05:04:12;56.10;;;23.90;;
68126;SDS011;54931;52.098;21.006;2023-08-30T05:06:39;57.10;;;23.40;;
68126;SDS011;54931;52.098;21.006;2023-08-30T05:09:07;48.70;;;21.90;;
68126;SDS011;54931;52.098;21.006;2023-08-30T05:11:35;55.50;;;23.10;;
68126;SDS011;54931;52.098;21.006;2023-08-30T05:14:03;49.10;;;22.60;;
68126;SDS011;54931;52.098;21.006;2023-08-30T05:16:30;56.30;;;24.10;;
68126;SDS011;54931;52.098;21.006;2023-08-30T05:18:58;57.90;;;23.80;;
68126;SDS011;54931;52.098;21.006;2023-08-30T05:21:25;61.70;;;23.20;;
68126;SDS011;54931;52.098;21.006;2023-08-30T05:23:53;58.60;;;24.50;;
68126;SDS011;54931;52.098;21.006;2023-08-30T05:26:20;54.80;;;23.30;;
68126;SDS011;54931;52.098;21.006;2023-08-30T05:28:48;59.20;;;24.10;;
68126;SDS011;54931;52.098;21.006;2023-08-30T05:31:16;52.20;;;23.00;;
68126;SDS011;54931;52.098;21.006;2023-08-30T05:33:43;49.50;;;22.10;;
68126;SDS011;54931;52.098;21.006;2023-08-30T05:36:11;51.90;;;22.10;;
68126;SDS011;54931;52.098;21.006;2023-08-30T05:38:38;46.40;;;22.10;;
68126;SDS011;54931;52.098;21.006;2023-08-30T05:41:06;45.50;;;22.30;;
68126;SDS011;54931;52.098;21.006;2023-08-30T05:43:33;45.20;;;20.80;;
68126;SDS011;54931;52.098;21.006;2023-08-30T05:46:01;44.50;;;21.60;;
68126;SDS011;54931;52.098;21.006;2023-08-30T05:48:30;40.70;;;20.70;;
68126;SDS011;54931;52.098;21.006;2023-08-30T05:50:58;43.90;;;21.00;;
68126;SDS011;54931;52.098;21.006;2023-08-30T05:53:25;41.90;;;20.60;;
68126;SDS011;54931;52.098;21.006;2023-08-30T05:55:53;39.90;;;20.70;;
68126;SDS011;54931;52.098;21.006;2023-08-30T05:58:20;41.20;;;19.50;;
68126;SDS011;54931;52.098;21.006;2023-08-30T06:00:48;38.90;;;18.70;;
68126;SDS011;54931;52.098;21.006;2023-08-30T06:03:16;40.30;;;19.30;;
68126;SDS011;54931;52.098;21.006;2023-08-30T06:05:43;39.30;;;19.50;;
68126;SDS011;54931;52.098;21.006;2023-08-30T06:08:11;37.10;;;19.10;;
68126;SDS011;54931;52.098;21.006;2023-08-30T06:10:39;36.90;;;18.40;;
68126;SDS011;54931;52.098;21.006;2023-08-30T06:13:06;38.90;;;18.70;;
68126;SDS011;54931;52.098;21.006;2023-08-30T06:15:35;35.70;;;17.20;;
68126;SDS011;54931;52.098;21.006;2023-08-30T06:18:05;36.60;;;18.50;;
68126;SDS011;54931;52.098;21.006;2023-08-30T06:20:32;40.00;;;19.00;;
68126;SDS011;54931;52.098;21.006;2023-08-30T06:23:03;37.20;;;18.10;;
68126;SDS011;54931;52.098;21.006;2023-08-30T06:25:31;39.90;;;19.10;;
68126;SDS011;54931;52.098;21.006;2023-08-30T06:27:59;37.80;;;19.20;;
68126;SDS011;54931;52.098;21.006;2023-08-30T06:30:29;32.50;;;17.70;;
68126;SDS011;54931;52.098;21.006;2023-08-30T06:32:57;34.80;;;17.70;;
68126;SDS011;54931;52.098;21.006;2023-08-30T06:35:25;35.30;;;17.70;;
68126;SDS011;54931;52.098;21.006;2023-08-30T06:37:53;36.80;;;18.40;;
68126;SDS011;54931;52.098;21.006;2023-08-30T06:40:20;34.00;;;17.50;;
68126;SDS011;54931;52.098;21.006;2023-08-30T06:42:48;37.60;;;18.10;;
68126;SDS011;54931;52.098;21.006;2023-08-30T06:45:15;36.30;;;17.90;;
68126;SDS011;54931;52.098;21.006;2023-08-30T06:47:43;34.30;;;17.60;;
68126;SDS011;54931;52.098;21.006;2023-08-30T06:50:11;31.00;;;16.20;;
68126;SDS011;54931;52.098;21.006;2023-08-30T06:52:40;36.70;;;17.00;;
68126;SDS011;54931;52.098;21.006;2023-08-30T06:55:07;32.20;;;16.50;;
68126;SDS011;54931;52.098;21.006;2023-08-30T06:57:35;33.10;;;16.30;;
68126;SDS011;54931;52.098;21.006;2023-08-30T07:00:04;31.20;;;16.90;;
68126;SDS011;54931;52.098;21.006;2023-08-30T07:02:37;33.60;;;16.50;;
68126;SDS011;54931;52.098;21.006;2023-08-30T07:05:06;34.50;;;18.30;;
68126;SDS011;54931;52.098;21.006;2023-08-30T07:07:34;36.40;;;18.90;;
68126;SDS011;54931;52.098;21.006;2023-08-30T07:10:01;36.30;;;18.70;;
68126;SDS011;54931;52.098;21.006;2023-08-30T07:12:30;43.00;;;19.30;;
68126;SDS011;54931;52.098;21.006;2023-08-30T07:14:57;40.50;;;18.80;;
68126;SDS011;54931;52.098;21.006;2023-08-30T07:17:25;37.60;;;17.40;;
68126;SDS011;54931;52.098;21.006;2023-08-30T07:19:52;37.80;;;17.50;;
68126;SDS011;54931;52.098;21.006;2023-08-30T07:22:20;36.00;;;17.90;;
68126;SDS011;54931;52.098;21.006;2023-08-30T07:24:48;36.40;;;17.60;;
68126;SDS011;54931;52.098;21.006;2023-08-30T07:27:15;36.60;;;18.40;;
68126;SDS011;54931;52.098;21.006;2023-08-30T07:29:42;37.70;;;17.80;;
68126;SDS011;54931;52.098;21.006;2023-08-30T07:32:11;37.40;;;18.00;;
68126;SDS011;54931;52.098;21.006;2023-08-30T07:34:38;37.80;;;17.60;;
68126;SDS011;54931;52.098;21.006;2023-08-30T07:37:20;34.10;;;16.80;;
68126;SDS011;54931;52.098;21.006;2023-08-30T07:39:48;35.70;;;16.50;;
68126;SDS011;54931;52.098;21.006;2023-08-30T07:42:15;35.30;;;16.10;;
68126;SDS011;54931;52.098;21.006;2023-08-30T07:44:43;34.30;;;17.40;;
68126;SDS011;54931;52.098;21.006;2023-08-30T07:47:10;36.60;;;17.40;;
68126;SDS011;54931;52.098;21.006;2023-08-30T07:49:38;35.70;;;17.40;;
68126;SDS011;54931;52.098;21.006;2023-08-30T07:52:06;36.30;;;17.30;;
68126;SDS011;54931;52.098;21.006;2023-08-30T07:54:37;35.70;;;17.40;;
68126;SDS011;54931;52.098;21.006;2023-08-30T07:57:06;42.50;;;18.90;;
68126;SDS011;54931;52.098;21.006;2023-08-30T07:59:37;38.30;;;17.60;;
68126;SDS011;54931;52.098;21.006;2023-08-30T08:02:06;39.20;;;17.70;;
68126;SDS011;54931;52.098;21.006;2023-08-30T08:04:35;38.00;;;17.50;;
68126;SDS011;54931;52.098;21.006;2023-08-30T08:07:03;35.40;;;16.00;;
68126;SDS011;54931;52.098;21.006;2023-08-30T08:09:32;37.00;;;16.70;;
68126;SDS011;54931;52.098;21.006;2023-08-30T08:12:00;40.40;;;17.20;;
68126;SDS011;54931;52.098;21.006;2023-08-30T08:14:28;38.10;;;17.00;;
68126;SDS011;54931;52.098;21.006;2023-08-30T08:16:56;41.70;;;15.90;;
68126;SDS011;54931;52.098;21.006;2023-08-30T08:19:23;33.50;;;14.30;;
68126;SDS011;54931;52.098;21.006;2023-08-30T08:21:51;40.80;;;16.00;;
68126;SDS011;54931;52.098;21.006;2023-08-30T08:24:21;38.90;;;16.30;;
68126;SDS011;54931;52.098;21.006;2023-08-30T08:26:48;35.30;;;15.90;;
68126;SDS011;54931;52.098;21.006;2023-08-30T08:29:16;38.40;;;15.50;;
68126;SDS011;54931;52.098;21.006;2023-08-30T08:31:43;38.40;;;15.70;;
68126;SDS011;54931;52.098;21.006;2023-08-30T08:34:14;40.70;;;16.10;;
68126;SDS011;54931;52.098;21.006;2023-08-30T08:36:42;37.10;;;16.00;;
68126;SDS011;54931;52.098;21.006;2023-08-30T08:39:09;38.20;;;16.10;;
68126;SDS011;54931;52.098;21.006;2023-08-30T08:41:44;40.20;;;16.00;;
68126;SDS011;54931;52.098;21.006;2023-08-30T08:44:12;39.00;;;15.50;;
68126;SDS011;54931;52.098;21.006;2023-08-30T08:46:41;30.70;;;14.50;;
68126;SDS011;54931;52.098;21.006;2023-08-30T08:49:15;31.10;;;14.30;;
68126;SDS011;54931;52.098;21.006;2023-08-30T08:51:44;29.10;;;12.80;;
68126;SDS011;54931;52.098;21.006;2023-08-30T08:54:13;28.90;;;13.20;;
68126;SDS011;54931;52.098;21.006;2023-08-30T08:56:41;26.20;;;12.80;;
68126;SDS011;54931;52.098;21.006;2023-08-30T08:59:09;26.90;;;13.00;;
68126;SDS011;54931;52.098;21.006;2023-08-30T09:01:41;25.80;;;12.80;;
68126;SDS011;54931;52.098;21.006;2023-08-30T09:04:10;24.70;;;12.70;;
68126;SDS011;54931;52.098;21.006;2023-08-30T09:06:39;21.80;;;11.40;;
68126;SDS011;54931;52.098;21.006;2023-08-30T09:09:12;23.00;;;11.00;;
68126;SDS011;54931;52.098;21.006;2023-08-30T09:11:41;19.90;;;10.60;;
68126;SDS011;54931;52.098;21.006;2023-08-30T09:14:09;18.60;;;9.60;;
68126;SDS011;54931;52.098;21.006;2023-08-30T09:16:36;17.00;;;9.20;;
68126;SDS011;54931;52.098;21.006;2023-08-30T09:19:04;17.20;;;9.20;;
68126;SDS011;54931;52.098;21.006;2023-08-30T09:21:32;14.70;;;8.80;;
68126;SDS011;54931;52.098;21.006;2023-08-30T09:24:01;14.80;;;8.20;;
68126;SDS011;54931;52.098;21.006;2023-08-30T09:26:31;15.40;;;8.10;;
68126;SDS011;54931;52.098;21.006;2023-08-30T09:29:04;13.10;;;7.20;;
68126;SDS011;54931;52.098;21.006;2023-08-30T09:31:37;15.70;;;8.30;;
68126;SDS011;54931;52.098;21.006;2023-08-30T09:34:07;14.40;;;8.30;;
68126;SDS011;54931;52.098;21.006;2023-08-30T09:36:40;16.00;;;8.50;;
68126;SDS011;54931;52.098;21.006;2023-08-30T09:39:10;13.70;;;8.00;;
68126;SDS011;54931;52.098;21.006;2023-08-30T09:41:50;14.10;;;7.60;;
68126;SDS011;54931;52.098;21.006;2023-08-30T09:44:19;21.70;;;9.30;;
68126;SDS011;54931;52.098;21.006;2023-08-30T09:46:53;22.10;;;9.20;;
68126;SDS011;54931;52.098;21.006;2023-08-30T09:49:23;25.00;;;9.60;;
68126;SDS011;54931;52.098;21.006;2023-08-30T09:51:53;23.20;;;10.60;;
68126;SDS011;54931;52.098;21.006;2023-08-30T09:54:25;19.90;;;9.90;;
68126;SDS011;54931;52.098;21.006;2023-08-30T09:56:54;24.10;;;10.70;;
68126;SDS011;54931;52.098;21.006;2023-08-30T09:59:24;26.00;;;11.60;;
68126;SDS011;54931;52.098;21.006;2023-08-30T10:01:54;27.30;;;11.60;;
68126;SDS011;54931;52.098;21.006;2023-08-30T10:04:23;25.90;;;11.10;;
68126;SDS011;54931;52.098;21.006;2023-08-30T10:06:51;27.90;;;11.20;;
68126;SDS011;54931;52.098;21.006;2023-08-30T10:09:21;25.20;;;11.40;;
68126;SDS011;54931;52.098;21.006;2023-08-30T10:11:50;25.80;;;11.60;;
68126;SDS011;54931;52.098;21.006;2023-08-30T10:14:18;20.60;;;10.60;;
68126;SDS011;54931;52.098;21.006;2023-08-30T10:16:47;25.60;;;10.70;;
68126;SDS011;54931;52.098;21.006;2023-08-30T10:19:25;29.20;;;11.50;;
68126;SDS011;54931;52.098;21.006;2023-08-30T10:22:02;29.00;;;12.20;;
68126;SDS011;54931;52.098;21.006;2023-08-30T10:24:37;27.50;;;12.30;;
68126;SDS011;54931;52.098;21.006;2023-08-30T10:27:08;24.30;;;11.60;;
68126;SDS011;54931;52.098;21.006;2023-08-30T10:29:38;29.20;;;10.90;;
68126;SDS011;54931;52.098;21.006;2023-08-30T10:32:08;23.50;;;11.00;;
68126;SDS011;54931;52.098;21.006;2023-08-30T10:34:37;22.20;;;10.50;;
68126;SDS011;54931;52.098;21.006;2023-08-30T10:37:09;24.10;;;10.40;;
68126;SDS011;54931;52.098;21.006;2023-08-30T10:39:39;21.50;;;10.30;;
68126;SDS011;54931;52.098;21.006;2023-08-30T10:42:13;20.50;;;9.60;;
68126;SDS011;54931;52.098;21.006;2023-08-30T10:44:50;28.00;;;10.20;;
68126;SDS011;54931;52.098;21.006;2023-08-30T10:47:19;20.20;;;8.90;;
68126;SDS011;54931;52.098;21.006;2023-08-30T10:49:49;19.70;;;8.00;;
68126;SDS011;54931;52.098;21.006;2023-08-30T10:52:17;24.60;;;8.90;;
68126;SDS011;54931;52.098;21.006;2023-08-30T10:54:45;16.20;;;7.60;;
68126;SDS011;54931;52.098;21.006;2023-08-30T10:57:20;18.30;;;8.50;;
68126;SDS011;54931;52.098;21.006;2023-08-30T11:00:10;12.90;;;7.10;;
68126;SDS011;54931;52.098;21.006;2023-08-30T11:02:44;14.10;;;8.20;;
68126;SDS011;54931;52.098;21.006;2023-08-30T11:05:15;13.70;;;7.70;;
68126;SDS011;54931;52.098;21.006;2023-08-30T11:07:48;14.50;;;8.70;;
68126;SDS011;54931;52.098;21.006;2023-08-30T11:10:18;15.00;;;8.60;;
68126;SDS011;54931;52.098;21.006;2023-08-30T11:12:48;14.00;;;7.30;;
68126;SDS011;54931;52.098;21.006;2023-08-30T11:15:17;11.80;;;6.80;;
68126;SDS011;54931;52.098;21.006;2023-08-30T11:17:45;10.40;;;6.20;;
68126;SDS011;54931;52.098;21.006;2023-08-30T11:20:15;10.40;;;6.00;;
68126;SDS011;54931;52.098;21.006;2023-08-30T11:22:47;9.90;;;6.00;;
68126;SDS011;54931;52.098;21.006;2023-08-30T11:25:16;8.70;;;5.10;;
68126;SDS011;54931;52.098;21.006;2023-08-30T11:27:44;7.60;;;5.00;;
68126;SDS011;54931;52.098;21.006;2023-08-30T11:30:13;8.50;;;5.30;;
68126;SDS011;54931;52.098;21.006;2023-08-30T11:32:42;7.10;;;4.80;;
68126;SDS011;54931;52.098;21.006;2023-08-30T11:35:10;8.10;;;4.90;;
68126;SDS011;54931;52.098;21.006;2023-08-30T11:37:40;7.70;;;4.90;;
68126;SDS011;54931;52.098;21.006;2023-08-30T11:40:11;9.80;;;5.70;;
68126;SDS011;54931;52.098;21.006;2023-08-30T11:42:39;7.90;;;5.60;;
68126;SDS011;54931;52.098;21.006;2023-08-30T11:45:08;9.20;;;5.40;;
68126;SDS011;54931;52.098;21.006;2023-08-30T11:47:37;9.30;;;6.10;;
68126;SDS011;54931;52.098;21.006;2023-08-30T11:50:06;8.10;;;5.50;;
68126;SDS011;54931;52.098;21.006;2023-08-30T11:52:36;6.50;;;4.80;;
68126;SDS011;54931;52.098;21.006;2023-08-30T11:55:06;8.20;;;5.40;;
68126;SDS011;54931;52.098;21.006;2023-08-30T11:57:36;8.80;;;5.40;;
68126;SDS011;54931;52.098;21.006;2023-08-30T12:00:08;8.70;;;6.20;;
68126;SDS011;54931;52.098;21.006;2023-08-30T12:02:41;10.40;;;6.00;;
68126;SDS011;54931;52.098;21.006;2023-08-30T12:05:15;11.20;;;6.90;;
68126;SDS011;54931;52.098;21.006;2023-08-30T12:07:45;11.50;;;7.10;;
68126;SDS011;54931;52.098;21.006;2023-08-30T12:10:18;11.10;;;6.80;;
68126;SDS011;54931;52.098;21.006;2023-08-30T12:12:47;10.60;;;6.60;;
68126;SDS011;54931;52.098;21.006;2023-08-30T12:15:15;13.40;;;6.70;;
68126;SDS011;54931;52.098;21.006;2023-08-30T12:17:43;10.20;;;6.40;;
68126;SDS011;54931;52.098;21.006;2023-08-30T12:20:15;10.20;;;6.20;;
68126;SDS011;54931;52.098;21.006;2023-08-30T12:22:45;11.50;;;6.50;;
68126;SDS011;54931;52.098;21.006;2023-08-30T12:25:16;8.80;;;6.00;;
68126;SDS011;54931;52.098;21.006;2023-08-30T12:27:46;10.30;;;5.90;;
68126;SDS011;54931;52.098;21.006;2023-08-30T12:30:15;9.30;;;6.20;;
68126;SDS011;54931;52.098;21.006;2023-08-30T12:32:44;10.30;;;6.40;;
68126;SDS011;54931;52.098;21.006;2023-08-30T12:35:12;9.80;;;6.40;;
68126;SDS011;54931;52.098;21.006;2023-08-30T12:37:40;10.60;;;6.10;;
68126;SDS011;54931;52.098;21.006;2023-08-30T12:40:08;10.00;;;5.80;;
68126;SDS011;54931;52.098;21.006;2023-08-30T12:42:37;10.10;;;6.00;;
68126;SDS011;54931;52.098;21.006;2023-08-30T12:45:06;11.40;;;6.10;;
68126;SDS011;54931;52.098;21.006;2023-08-30T12:47:35;11.50;;;5.50;;
68126;SDS011;54931;52.098;21.006;2023-08-30T12:50:03;13.00;;;5.90;;
68126;SDS011;54931;52.098;21.006;2023-08-30T12:52:31;10.60;;;5.70;;
68126;SDS011;54931;52.098;21.006;2023-08-30T12:54:59;11.00;;;6.20;;
68126;SDS011;54931;52.098;21.006;2023-08-30T12:57:27;12.00;;;6.80;;
68126;SDS011;54931;52.098;21.006;2023-08-30T12:59:54;11.30;;;6.60;;
68126;SDS011;54931;52.098;21.006;2023-08-30T13:02:22;9.50;;;5.50;;
68126;SDS011;54931;52.098;21.006;2023-08-30T13:04:49;9.30;;;5.60;;
68126;SDS011;54931;52.098;21.006;2023-08-30T13:07:17;9.70;;;5.40;;
68126;SDS011;54931;52.098;21.006;2023-08-30T13:09:46;9.60;;;5.40;;
68126;SDS011;54931;52.098;21.006;2023-08-30T13:12:13;10.80;;;5.20;;
68126;SDS011;54931;52.098;21.006;2023-08-30T13:14:41;8.20;;;5.20;;
68126;SDS011;54931;52.098;21.006;2023-08-30T13:17:08;10.00;;;6.00;;
68126;SDS011;54931;52.098;21.006;2023-08-30T13:19:36;9.60;;;5.70;;
68126;SDS011;54931;52.098;21.006;2023-08-30T13:22:04;7.30;;;5.30;;
68126;SDS011;54931;52.098;21.006;2023-08-30T13:24:31;7.20;;;4.70;;
68126;SDS011;54931;52.098;21.006;2023-08-30T13:27:00;7.20;;;4.70;;
68126;SDS011;54931;52.098;21.006;2023-08-30T13:29:27;7.50;;;4.60;;
68126;SDS011;54931;52.098;21.006;2023-08-30T13:31:55;7.90;;;5.20;;
68126;SDS011;54931;52.098;21.006;2023-08-30T13:34:23;7.00;;;4.80;;
68126;SDS011;54931;52.098;21.006;2023-08-30T13:36:50;7.00;;;4.60;;
68126;SDS011;54931;52.098;21.006;2023-08-30T13:39:18;5.80;;;4.00;;
68126;SDS011;54931;52.098;21.006;2023-08-30T13:41:47;6.30;;;4.10;;
68126;SDS011;54931;52.098;21.006;2023-08-30T13:44:15;7.70;;;4.30;;
68126;SDS011;54931;52.098;21.006;2023-08-30T13:46:43;7.80;;;4.70;;
68126;SDS011;54931;52.098;21.006;2023-08-30T13:49:15;6.50;;;4.60;;
68126;SDS011;54931;52.098;21.006;2023-08-30T13:51:44;9.20;;;4.80;;
68126;SDS011;54931;52.098;21.006;2023-08-30T13:54:14;9.40;;;5.10;;
68126;SDS011;54931;52.098;21.006;2023-08-30T13:56:41;8.60;;;4.70;;
68126;SDS011;54931;52.098;21.006;2023-08-30T13:59:09;6.20;;;4.10;;
68126;SDS011;54931;52.098;21.006;2023-08-30T14:01:36;5.80;;;3.90;;
68126;SDS011;54931;52.098;21.006;2023-08-30T14:04:04;7.20;;;4.50;;
68126;SDS011;54931;52.098;21.006;2023-08-30T14:06:33;6.70;;;4.40;;
68126;SDS011;54931;52.098;21.006;2023-08-30T14:09:01;6.40;;;4.00;;
68126;SDS011;54931;52.098;21.006;2023-08-30T14:11:29;4.80;;;3.60;;
68126;SDS011;54931;52.098;21.006;2023-08-30T14:13:56;6.80;;;3.50;;
68126;SDS011;54931;52.098;21.006;2023-08-30T14:16:24;5.20;;;3.60;;
68126;SDS011;54931;52.098;21.006;2023-08-30T14:18:52;4.00;;;3.10;;
68126;SDS011;54931;52.098;21.006;2023-08-30T14:21:20;5.90;;;3.40;;
68126;SDS011;54931;52.098;21.006;2023-08-30T14:23:48;4.50;;;3.00;;
68126;SDS011;54931;52.098;21.006;2023-08-30T14:26:16;4.20;;;3.30;;
68126;SDS011;54931;52.098;21.006;2023-08-30T14:28:43;4.30;;;3.20;;
68126;SDS011;54931;52.098;21.006;2023-08-30T14:31:11;5.10;;;3.60;;
68126;SDS011;54931;52.098;21.006;2023-08-30T14:33:42;5.30;;;3.70;;